sensor_id;sensor_type;location;lat;lon;timestamp;temperature;humidity
58469;DHT22;44257;44.804;10.220;2024-02-04T00:00:35;2.80;99.90
58469;DHT22;44257;44.804;10.220;2024-02-04T00:03:02;2.60;99.90
58469;DHT22;44257;44.804;10.220;2024-02-04T00:05:28;2.60;99.90
58469;DHT22;44257;44.804;10.220;2024-02-04T00:07:54;2.50;99.90
58469;DHT22;44257;44.804;10.220;2024-02-04T00:10:20;2.40;99.90
58469;DHT22;44257;44.804;10.220;2024-02-04T00:12:46;2.30;99.90
58469;DHT22;44257;44.804;10.220;2024-02-04T00:15:12;2.30;99.90
58469;DHT22;44257;44.804;10.220;2024-02-04T00:17:38;2.40;99.90
58469;DHT22;44257;44.804;10.220;2024-02-04T00:20:04;2.40;99.90
58469;DHT22;44257;44.804;10.220;2024-02-04T00:22:33;2.40;99.90
58469;DHT22;44257;44.804;10.220;2024-02-04T00:25:02;2.30;99.90
58469;DHT22;44257;44.804;10.220;2024-02-04T00:27:34;2.20;99.90
58469;DHT22;44257;44.804;10.220;2024-02-04T00:30:00;2.00;99.90
58469;DHT22;44257;44.804;10.220;2024-02-04T00:32:26;2.00;99.90
58469;DHT22;44257;44.804;10.220;2024-02-04T00:34:52;2.00;99.90
58469;DHT22;44257;44.804;10.220;2024-02-04T00:37:19;1.90;99.90
58469;DHT22;44257;44.804;10.220;2024-02-04T00:39:45;1.80;99.90
58469;DHT22;44257;44.804;10.220;2024-02-04T00:42:11;1.90;99.90
58469;DHT22;44257;44.804;10.220;2024-02-04T00:44:37;1.80;99.90
58469;DHT22;44257;44.804;10.220;2024-02-04T00:47:03;1.80;99.90
58469;DHT22;44257;44.804;10.220;2024-02-04T00:49:30;1.80;99.90
58469;DHT22;44257;44.804;10.220;2024-02-04T00:51:56;1.80;99.90
58469;DHT22;44257;44.804;10.220;2024-02-04T00:54:21;1.80;99.90
58469;DHT22;44257;44.804;10.220;2024-02-04T00:56:47;1.80;99.90
58469;DHT22;44257;44.804;10.220;2024-02-04T00:59:13;1.90;99.90
58469;DHT22;44257;44.804;10.220;2024-02-04T01:01:39;2.00;99.90
58469;DHT22;44257;44.804;10.220;2024-02-04T01:04:05;2.00;99.90
58469;DHT22;44257;44.804;10.220;2024-02-04T01:06:31;1.90;99.90
58469;DHT22;44257;44.804;10.220;2024-02-04T01:08:57;1.80;99.90
58469;DHT22;44257;44.804;10.220;2024-02-04T01:11:23;1.70;99.90
58469;DHT22;44257;44.804;10.220;2024-02-04T01:13:48;1.70;99.90
58469;DHT22;44257;44.804;10.220;2024-02-04T01:16:14;1.70;99.90
58469;DHT22;44257;44.804;10.220;2024-02-04T01:18:40;1.80;99.90
58469;DHT22;44257;44.804;10.220;2024-02-04T01:21:06;1.80;99.90
58469;DHT22;44257;44.804;10.220;2024-02-04T01:23:34;1.90;99.90
58469;DHT22;44257;44.804;10.220;2024-02-04T01:26:00;2.00;99.90
58469;DHT22;44257;44.804;10.220;2024-02-04T01:28:26;2.10;99.90
58469;DHT22;44257;44.804;10.220;2024-02-04T01:30:52;2.10;99.90
58469;DHT22;44257;44.804;10.220;2024-02-04T01:33:18;2.00;99.90
58469;DHT22;44257;44.804;10.220;2024-02-04T01:35:43;2.00;99.90
58469;DHT22;44257;44.804;10.220;2024-02-04T01:38:09;2.00;99.90
58469;DHT22;44257;44.804;10.220;2024-02-04T01:40:35;2.00;99.90
58469;DHT22;44257;44.804;10.220;2024-02-04T01:43:01;2.10;99.90
58469;DHT22;44257;44.804;10.220;2024-02-04T01:45:27;2.20;99.90
58469;DHT22;44257;44.804;10.220;2024-02-04T01:47:53;2.20;99.90
58469;DHT22;44257;44.804;10.220;2024-02-04T01:50:20;2.30;99.90
58469;DHT22;44257;44.804;10.220;2024-02-04T01:52:46;2.30;99.90
58469;DHT22;44257;44.804;10.220;2024-02-04T01:55:13;2.40;99.90
58469;DHT22;44257;44.804;10.220;2024-02-04T01:57:40;2.40;99.90
58469;DHT22;44257;44.804;10.220;2024-02-04T02:00:07;2.40;99.90
58469;DHT22;44257;44.804;10.220;2024-02-04T02:02:40;2.40;99.90
58469;DHT22;44257;44.804;10.220;2024-02-04T02:05:06;2.50;99.90
58469;DHT22;44257;44.804;10.220;2024-02-04T02:07:33;2.60;99.90
58469;DHT22;44257;44.804;10.220;2024-02-04T02:09:59;2.70;99.90
58469;DHT22;44257;44.804;10.220;2024-02-04T02:12:39;2.70;99.90
58469;DHT22;44257;44.804;10.220;2024-02-04T02:15:14;2.80;99.90
58469;DHT22;44257;44.804;10.220;2024-02-04T02:18:02;2.90;99.90
58469;DHT22;44257;44.804;10.220;2024-02-04T02:20:32;2.90;99.90
58469;DHT22;44257;44.804;10.220;2024-02-04T02:23:08;2.90;99.90
58469;DHT22;44257;44.804;10.220;2024-02-04T02:25:39;2.80;99.90
58469;DHT22;44257;44.804;10.220;2024-02-04T02:28:07;2.80;99.90
58469;DHT22;44257;44.804;10.220;2024-02-04T02:30:32;2.80;99.90
58469;DHT22;44257;44.804;10.220;2024-02-04T02:32:58;2.70;99.90
58469;DHT22;44257;44.804;10.220;2024-02-04T02:35:25;2.70;99.90
58469;DHT22;44257;44.804;10.220;2024-02-04T02:38:31;2.80;99.90
58469;DHT22;44257;44.804;10.220;2024-02-04T02:41:02;2.90;99.90
58469;DHT22;44257;44.804;10.220;2024-02-04T02:43:29;2.90;99.90
58469;DHT22;44257;44.804;10.220;2024-02-04T02:45:55;3.00;99.90
58469;DHT22;44257;44.804;10.220;2024-02-04T02:48:22;3.00;99.90
58469;DHT22;44257;44.804;10.220;2024-02-04T02:50:49;3.10;99.90
58469;DHT22;44257;44.804;10.220;2024-02-04T02:53:15;3.20;99.90
58469;DHT22;44257;44.804;10.220;2024-02-04T02:55:41;3.20;99.90
58469;DHT22;44257;44.804;10.220;2024-02-04T02:58:07;3.20;99.90
58469;DHT22;44257;44.804;10.220;2024-02-04T03:00:33;3.20;99.90
58469;DHT22;44257;44.804;10.220;2024-02-04T03:02:59;3.20;99.90
58469;DHT22;44257;44.804;10.220;2024-02-04T03:05:25;3.20;99.90
58469;DHT22;44257;44.804;10.220;2024-02-04T03:07:50;3.20;99.90
58469;DHT22;44257;44.804;10.220;2024-02-04T03:10:16;3.30;99.90
58469;DHT22;44257;44.804;10.220;2024-02-04T03:12:42;3.40;99.90
58469;DHT22;44257;44.804;10.220;2024-02-04T03:15:08;3.40;99.90
58469;DHT22;44257;44.804;10.220;2024-02-04T03:17:34;3.40;99.90
58469;DHT22;44257;44.804;10.220;2024-02-04T03:20:00;3.60;99.90
58469;DHT22;44257;44.804;10.220;2024-02-04T03:22:26;3.60;99.90
58469;DHT22;44257;44.804;10.220;2024-02-04T03:24:52;3.70;99.90
58469;DHT22;44257;44.804;10.220;2024-02-04T03:27:19;3.60;99.90
58469;DHT22;44257;44.804;10.220;2024-02-04T03:29:46;3.60;99.90
58469;DHT22;44257;44.804;10.220;2024-02-04T03:32:12;3.60;99.90
58469;DHT22;44257;44.804;10.220;2024-02-04T03:34:38;3.60;99.90
58469;DHT22;44257;44.804;10.220;2024-02-04T03:37:06;3.60;99.90
58469;DHT22;44257;44.804;10.220;2024-02-04T03:39:32;3.60;99.90
58469;DHT22;44257;44.804;10.220;2024-02-04T03:41:58;3.50;99.90
58469;DHT22;44257;44.804;10.220;2024-02-04T03:44:24;3.40;99.90
58469;DHT22;44257;44.804;10.220;2024-02-04T03:46:50;3.30;99.90
58469;DHT22;44257;44.804;10.220;2024-02-04T03:49:16;3.30;99.90
58469;DHT22;44257;44.804;10.220;2024-02-04T03:51:42;3.30;99.90
58469;DHT22;44257;44.804;10.220;2024-02-04T03:54:08;3.30;99.90
58469;DHT22;44257;44.804;10.220;2024-02-04T03:56:34;3.20;99.90
58469;DHT22;44257;44.804;10.220;2024-02-04T03:59:01;3.10;99.90
58469;DHT22;44257;44.804;10.220;2024-02-04T04:01:27;3.10;99.90
58469;DHT22;44257;44.804;10.220;2024-02-04T04:03:52;3.10;99.90
58469;DHT22;44257;44.804;10.220;2024-02-04T04:06:18;3.10;99.90
58469;DHT22;44257;44.804;10.220;2024-02-04T04:08:44;3.00;99.90
58469;DHT22;44257;44.804;10.220;2024-02-04T04:11:10;2.90;99.90
58469;DHT22;44257;44.804;10.220;2024-02-04T04:13:37;2.80;99.90
58469;DHT22;44257;44.804;10.220;2024-02-04T04:16:04;2.70;99.90
58469;DHT22;44257;44.804;10.220;2024-02-04T04:18:30;2.60;99.90
58469;DHT22;44257;44.804;10.220;2024-02-04T04:20:56;2.70;99.90
58469;DHT22;44257;44.804;10.220;2024-02-04T04:23:22;2.70;99.90
58469;DHT22;44257;44.804;10.220;2024-02-04T04:25:48;2.70;99.90
58469;DHT22;44257;44.804;10.220;2024-02-04T04:28:14;2.70;99.90
58469;DHT22;44257;44.804;10.220;2024-02-04T04:30:39;2.70;99.90
58469;DHT22;44257;44.804;10.220;2024-02-04T04:33:05;2.70;99.90
58469;DHT22;44257;44.804;10.220;2024-02-04T04:35:32;2.70;99.90
58469;DHT22;44257;44.804;10.220;2024-02-04T04:37:58;2.90;99.90
58469;DHT22;44257;44.804;10.220;2024-02-04T04:40:23;3.00;99.90
58469;DHT22;44257;44.804;10.220;2024-02-04T04:42:49;3.00;99.90
58469;DHT22;44257;44.804;10.220;2024-02-04T04:45:15;3.00;99.90
58469;DHT22;44257;44.804;10.220;2024-02-04T04:47:41;2.90;99.90
58469;DHT22;44257;44.804;10.220;2024-02-04T04:50:07;2.80;99.90
58469;DHT22;44257;44.804;10.220;2024-02-04T04:52:33;2.80;99.90
58469;DHT22;44257;44.804;10.220;2024-02-04T04:54:59;2.80;99.90
58469;DHT22;44257;44.804;10.220;2024-02-04T04:57:25;2.80;99.90
58469;DHT22;44257;44.804;10.220;2024-02-04T04:59:50;2.80;99.90
58469;DHT22;44257;44.804;10.220;2024-02-04T05:02:16;2.80;99.90
58469;DHT22;44257;44.804;10.220;2024-02-04T05:04:43;2.80;99.90
58469;DHT22;44257;44.804;10.220;2024-02-04T05:07:10;2.80;99.90
58469;DHT22;44257;44.804;10.220;2024-02-04T05:09:36;2.60;99.90
58469;DHT22;44257;44.804;10.220;2024-02-04T05:12:03;2.30;99.90
58469;DHT22;44257;44.804;10.220;2024-02-04T05:14:29;2.10;99.90
58469;DHT22;44257;44.804;10.220;2024-02-04T05:16:55;1.90;99.90
58469;DHT22;44257;44.804;10.220;2024-02-04T05:19:20;1.80;99.90
58469;DHT22;44257;44.804;10.220;2024-02-04T05:21:46;1.80;99.90
58469;DHT22;44257;44.804;10.220;2024-02-04T05:24:12;1.80;99.90
58469;DHT22;44257;44.804;10.220;2024-02-04T05:26:38;1.70;99.90
58469;DHT22;44257;44.804;10.220;2024-02-04T05:29:04;1.60;99.90
58469;DHT22;44257;44.804;10.220;2024-02-04T05:31:30;1.50;99.90
58469;DHT22;44257;44.804;10.220;2024-02-04T05:33:56;1.50;99.90
58469;DHT22;44257;44.804;10.220;2024-02-04T05:36:22;1.50;99.90
58469;DHT22;44257;44.804;10.220;2024-02-04T05:38:48;1.50;99.90
58469;DHT22;44257;44.804;10.220;2024-02-04T05:41:13;1.40;99.90
58469;DHT22;44257;44.804;10.220;2024-02-04T05:43:39;1.20;99.90
58469;DHT22;44257;44.804;10.220;2024-02-04T05:46:05;1.10;99.90
58469;DHT22;44257;44.804;10.220;2024-02-04T05:48:31;1.10;99.90
58469;DHT22;44257;44.804;10.220;2024-02-04T05:50:57;1.10;99.90
58469;DHT22;44257;44.804;10.220;2024-02-04T05:53:23;1.10;99.90
58469;DHT22;44257;44.804;10.220;2024-02-04T05:55:48;1.00;99.90
58469;DHT22;44257;44.804;10.220;2024-02-04T05:58:14;1.00;99.90
58469;DHT22;44257;44.804;10.220;2024-02-04T06:00:40;1.00;99.90
58469;DHT22;44257;44.804;10.220;2024-02-04T06:03:06;0.90;99.90
58469;DHT22;44257;44.804;10.220;2024-02-04T06:05:32;0.90;99.90
58469;DHT22;44257;44.804;10.220;2024-02-04T06:07:58;0.90;99.90
58469;DHT22;44257;44.804;10.220;2024-02-04T06:10:24;0.80;99.90
58469;DHT22;44257;44.804;10.220;2024-02-04T06:12:50;1.00;99.90
58469;DHT22;44257;44.804;10.220;2024-02-04T06:15:16;1.20;99.90
58469;DHT22;44257;44.804;10.220;2024-02-04T06:17:42;1.30;99.90
58469;DHT22;44257;44.804;10.220;2024-02-04T06:20:08;1.30;99.90
58469;DHT22;44257;44.804;10.220;2024-02-04T06:22:35;1.20;99.90
58469;DHT22;44257;44.804;10.220;2024-02-04T06:25:04;1.10;99.90
58469;DHT22;44257;44.804;10.220;2024-02-04T06:27:31;1.10;99.90
58469;DHT22;44257;44.804;10.220;2024-02-04T06:29:56;1.00;99.90
58469;DHT22;44257;44.804;10.220;2024-02-04T06:32:23;0.90;99.90
58469;DHT22;44257;44.804;10.220;2024-02-04T06:34:50;0.80;99.90
58469;DHT22;44257;44.804;10.220;2024-02-04T06:37:17;0.70;99.90
58469;DHT22;44257;44.804;10.220;2024-02-04T06:39:42;0.70;99.90
58469;DHT22;44257;44.804;10.220;2024-02-04T06:42:08;0.70;99.90
58469;DHT22;44257;44.804;10.220;2024-02-04T06:44:34;0.70;99.90
58469;DHT22;44257;44.804;10.220;2024-02-04T06:47:00;0.60;99.90
58469;DHT22;44257;44.804;10.220;2024-02-04T06:49:26;0.60;99.90
58469;DHT22;44257;44.804;10.220;2024-02-04T06:51:52;0.60;99.90
58469;DHT22;44257;44.804;10.220;2024-02-04T06:54:23;0.60;99.90
58469;DHT22;44257;44.804;10.220;2024-02-04T06:56:49;0.70;99.90
58469;DHT22;44257;44.804;10.220;2024-02-04T06:59:15;0.70;99.90
58469;DHT22;44257;44.804;10.220;2024-02-04T07:01:41;0.70;99.90
58469;DHT22;44257;44.804;10.220;2024-02-04T07:04:07;0.90;99.90
58469;DHT22;44257;44.804;10.220;2024-02-04T07:06:32;1.00;99.90
58469;DHT22;44257;44.804;10.220;2024-02-04T07:08:58;1.00;99.90
58469;DHT22;44257;44.804;10.220;2024-02-04T07:11:24;1.00;99.90
58469;DHT22;44257;44.804;10.220;2024-02-04T07:13:50;1.10;99.90
58469;DHT22;44257;44.804;10.220;2024-02-04T07:16:24;1.20;99.90
58469;DHT22;44257;44.804;10.220;2024-02-04T07:18:50;1.40;99.90
58469;DHT22;44257;44.804;10.220;2024-02-04T07:21:16;1.70;99.90
58469;DHT22;44257;44.804;10.220;2024-02-04T07:23:42;2.00;99.90
58469;DHT22;44257;44.804;10.220;2024-02-04T07:26:08;2.30;99.90
58469;DHT22;44257;44.804;10.220;2024-02-04T07:28:34;2.70;99.90
58469;DHT22;44257;44.804;10.220;2024-02-04T07:31:00;3.10;99.90
58469;DHT22;44257;44.804;10.220;2024-02-04T07:33:26;3.50;99.90
58469;DHT22;44257;44.804;10.220;2024-02-04T07:35:52;3.90;99.90
58469;DHT22;44257;44.804;10.220;2024-02-04T07:38:18;4.30;99.90
58469;DHT22;44257;44.804;10.220;2024-02-04T07:40:44;4.60;99.90
58469;DHT22;44257;44.804;10.220;2024-02-04T07:43:09;4.70;99.90
58469;DHT22;44257;44.804;10.220;2024-02-04T07:45:35;4.90;99.90
58469;DHT22;44257;44.804;10.220;2024-02-04T07:48:01;5.10;99.90
58469;DHT22;44257;44.804;10.220;2024-02-04T07:50:27;5.10;99.90
58469;DHT22;44257;44.804;10.220;2024-02-04T07:52:53;5.20;99.90
58469;DHT22;44257;44.804;10.220;2024-02-04T07:55:19;5.20;99.90
58469;DHT22;44257;44.804;10.220;2024-02-04T07:57:45;5.30;99.90
58469;DHT22;44257;44.804;10.220;2024-02-04T08:00:11;5.60;99.90
58469;DHT22;44257;44.804;10.220;2024-02-04T08:02:40;5.90;99.90
58469;DHT22;44257;44.804;10.220;2024-02-04T08:05:06;6.10;99.90
58469;DHT22;44257;44.804;10.220;2024-02-04T08:07:32;6.20;99.90
58469;DHT22;44257;44.804;10.220;2024-02-04T08:09:58;6.40;99.90
58469;DHT22;44257;44.804;10.220;2024-02-04T08:12:24;6.60;99.90
58469;DHT22;44257;44.804;10.220;2024-02-04T08:14:49;6.80;99.90
58469;DHT22;44257;44.804;10.220;2024-02-04T08:17:15;7.00;99.90
58469;DHT22;44257;44.804;10.220;2024-02-04T08:19:41;7.10;99.90
58469;DHT22;44257;44.804;10.220;2024-02-04T08:22:07;7.30;99.90
58469;DHT22;44257;44.804;10.220;2024-02-04T08:24:34;7.50;99.90
58469;DHT22;44257;44.804;10.220;2024-02-04T08:27:00;7.70;99.90
58469;DHT22;44257;44.804;10.220;2024-02-04T08:29:26;7.90;99.90
58469;DHT22;44257;44.804;10.220;2024-02-04T08:31:52;8.00;99.90
58469;DHT22;44257;44.804;10.220;2024-02-04T08:34:19;8.20;99.90
58469;DHT22;44257;44.804;10.220;2024-02-04T08:36:50;8.40;99.90
58469;DHT22;44257;44.804;10.220;2024-02-04T08:39:16;8.50;99.90
58469;DHT22;44257;44.804;10.220;2024-02-04T08:41:42;8.70;99.90
58469;DHT22;44257;44.804;10.220;2024-02-04T08:44:07;8.80;99.90
58469;DHT22;44257;44.804;10.220;2024-02-04T08:46:33;8.90;99.90
58469;DHT22;44257;44.804;10.220;2024-02-04T08:48:59;9.00;99.90
58469;DHT22;44257;44.804;10.220;2024-02-04T08:51:25;9.20;99.90
58469;DHT22;44257;44.804;10.220;2024-02-04T08:53:51;9.30;99.90
58469;DHT22;44257;44.804;10.220;2024-02-04T08:56:17;9.40;99.90
58469;DHT22;44257;44.804;10.220;2024-02-04T08:58:45;9.60;99.90
58469;DHT22;44257;44.804;10.220;2024-02-04T09:01:11;9.90;99.90
58469;DHT22;44257;44.804;10.220;2024-02-04T09:03:37;10.10;99.90
58469;DHT22;44257;44.804;10.220;2024-02-04T09:06:03;10.40;99.90
58469;DHT22;44257;44.804;10.220;2024-02-04T09:08:29;10.60;99.90
58469;DHT22;44257;44.804;10.220;2024-02-04T09:10:55;10.80;99.90
58469;DHT22;44257;44.804;10.220;2024-02-04T09:13:21;11.00;99.90
58469;DHT22;44257;44.804;10.220;2024-02-04T09:15:46;11.10;99.90
58469;DHT22;44257;44.804;10.220;2024-02-04T09:18:13;11.20;99.90
58469;DHT22;44257;44.804;10.220;2024-02-04T09:20:38;11.40;99.90
58469;DHT22;44257;44.804;10.220;2024-02-04T09:23:05;11.60;99.90
58469;DHT22;44257;44.804;10.220;2024-02-04T09:25:31;11.80;99.90
58469;DHT22;44257;44.804;10.220;2024-02-04T09:27:57;11.90;99.90
58469;DHT22;44257;44.804;10.220;2024-02-04T09:30:22;12.10;99.90
58469;DHT22;44257;44.804;10.220;2024-02-04T09:32:48;12.40;99.90
58469;DHT22;44257;44.804;10.220;2024-02-04T09:35:14;12.70;99.90
58469;DHT22;44257;44.804;10.220;2024-02-04T09:37:41;13.00;99.90
58469;DHT22;44257;44.804;10.220;2024-02-04T09:40:08;13.30;99.90
58469;DHT22;44257;44.804;10.220;2024-02-04T09:42:34;13.60;99.90
58469;DHT22;44257;44.804;10.220;2024-02-04T09:45:00;13.80;99.90
58469;DHT22;44257;44.804;10.220;2024-02-04T09:47:26;13.80;99.90
58469;DHT22;44257;44.804;10.220;2024-02-04T09:49:53;13.90;99.90
58469;DHT22;44257;44.804;10.220;2024-02-04T09:52:25;13.90;99.90
58469;DHT22;44257;44.804;10.220;2024-02-04T09:54:57;13.90;99.90
58469;DHT22;44257;44.804;10.220;2024-02-04T09:57:24;13.80;99.90
58469;DHT22;44257;44.804;10.220;2024-02-04T09:59:50;13.70;99.90
58469;DHT22;44257;44.804;10.220;2024-02-04T10:02:16;13.70;99.90
58469;DHT22;44257;44.804;10.220;2024-02-04T10:04:42;13.70;99.90
58469;DHT22;44257;44.804;10.220;2024-02-04T10:07:09;13.60;99.90
58469;DHT22;44257;44.804;10.220;2024-02-04T10:09:34;13.50;99.90
58469;DHT22;44257;44.804;10.220;2024-02-04T10:12:00;13.30;99.90
58469;DHT22;44257;44.804;10.220;2024-02-04T10:14:26;13.10;99.90
58469;DHT22;44257;44.804;10.220;2024-02-04T10:16:52;13.00;99.90
58469;DHT22;44257;44.804;10.220;2024-02-04T10:19:18;13.00;99.90
58469;DHT22;44257;44.804;10.220;2024-02-04T10:21:44;13.00;99.90
58469;DHT22;44257;44.804;10.220;2024-02-04T10:24:10;13.00;99.90
58469;DHT22;44257;44.804;10.220;2024-02-04T10:26:36;12.90;99.90
58469;DHT22;44257;44.804;10.220;2024-02-04T10:29:03;12.90;99.90
58469;DHT22;44257;44.804;10.220;2024-02-04T10:31:29;13.00;99.90
58469;DHT22;44257;44.804;10.220;2024-02-04T10:33:56;13.10;99.90
58469;DHT22;44257;44.804;10.220;2024-02-04T10:36:22;13.30;99.90
58469;DHT22;44257;44.804;10.220;2024-02-04T10:38:48;13.40;99.90
58469;DHT22;44257;44.804;10.220;2024-02-04T10:41:17;13.50;99.90
58469;DHT22;44257;44.804;10.220;2024-02-04T10:43:44;13.60;99.90
58469;DHT22;44257;44.804;10.220;2024-02-04T10:46:14;13.70;99.90
58469;DHT22;44257;44.804;10.220;2024-02-04T10:48:42;13.80;99.90
58469;DHT22;44257;44.804;10.220;2024-02-04T10:51:16;14.00;99.90
58469;DHT22;44257;44.804;10.220;2024-02-04T10:53:44;14.20;99.90
58469;DHT22;44257;44.804;10.220;2024-02-04T10:56:37;14.40;99.90
58469;DHT22;44257;44.804;10.220;2024-02-04T10:59:04;14.60;99.90
58469;DHT22;44257;44.804;10.220;2024-02-04T11:01:31;14.60;99.90
58469;DHT22;44257;44.804;10.220;2024-02-04T11:03:58;14.60;99.90
58469;DHT22;44257;44.804;10.220;2024-02-04T11:06:26;14.70;99.90
58469;DHT22;44257;44.804;10.220;2024-02-04T11:08:52;14.70;99.90
58469;DHT22;44257;44.804;10.220;2024-02-04T11:11:19;14.80;99.90
58469;DHT22;44257;44.804;10.220;2024-02-04T11:13:48;14.80;99.90
58469;DHT22;44257;44.804;10.220;2024-02-04T11:17:14;15.00;99.90
58469;DHT22;44257;44.804;10.220;2024-02-04T11:27:34;15.20;99.90
58469;DHT22;44257;44.804;10.220;2024-02-04T11:30:00;15.10;99.90
58469;DHT22;44257;44.804;10.220;2024-02-04T11:32:25;15.00;99.90
58469;DHT22;44257;44.804;10.220;2024-02-04T11:34:53;14.90;99.90
58469;DHT22;44257;44.804;10.220;2024-02-04T11:37:20;15.00;99.90
58469;DHT22;44257;44.804;10.220;2024-02-04T11:39:53;14.90;99.90
58469;DHT22;44257;44.804;10.220;2024-02-04T11:42:19;14.90;99.90
58469;DHT22;44257;44.804;10.220;2024-02-04T11:44:46;14.90;99.90
58469;DHT22;44257;44.804;10.220;2024-02-04T11:47:22;15.00;99.90
58469;DHT22;44257;44.804;10.220;2024-02-04T11:49:57;15.00;99.90
58469;DHT22;44257;44.804;10.220;2024-02-04T11:52:23;15.00;99.90
58469;DHT22;44257;44.804;10.220;2024-02-04T11:54:49;15.10;99.90
58469;DHT22;44257;44.804;10.220;2024-02-04T11:57:15;15.10;99.90
58469;DHT22;44257;44.804;10.220;2024-02-04T11:59:42;15.10;99.90
58469;DHT22;44257;44.804;10.220;2024-02-04T12:02:10;15.20;99.90
58469;DHT22;44257;44.804;10.220;2024-02-04T12:04:37;15.30;99.90
58469;DHT22;44257;44.804;10.220;2024-02-04T12:07:05;15.40;99.90
58469;DHT22;44257;44.804;10.220;2024-02-04T12:09:32;15.70;99.90
58469;DHT22;44257;44.804;10.220;2024-02-04T12:11:58;15.80;99.90
58469;DHT22;44257;44.804;10.220;2024-02-04T12:14:25;15.90;99.90
58469;DHT22;44257;44.804;10.220;2024-02-04T12:16:51;15.90;99.90
58469;DHT22;44257;44.804;10.220;2024-02-04T12:19:17;16.00;99.90
58469;DHT22;44257;44.804;10.220;2024-02-04T12:21:43;16.00;99.90
58469;DHT22;44257;44.804;10.220;2024-02-04T12:24:09;16.00;99.90
58469;DHT22;44257;44.804;10.220;2024-02-04T12:26:35;16.00;99.90
58469;DHT22;44257;44.804;10.220;2024-02-04T12:29:01;16.00;99.90
58469;DHT22;44257;44.804;10.220;2024-02-04T12:31:28;16.00;99.90
58469;DHT22;44257;44.804;10.220;2024-02-04T12:33:56;16.00;99.90
58469;DHT22;44257;44.804;10.220;2024-02-04T12:36:27;16.00;99.90
58469;DHT22;44257;44.804;10.220;2024-02-04T12:38:57;16.00;99.90
58469;DHT22;44257;44.804;10.220;2024-02-04T12:41:24;16.00;99.90
58469;DHT22;44257;44.804;10.220;2024-02-04T12:43:54;16.10;99.90
58469;DHT22;44257;44.804;10.220;2024-02-04T12:46:21;16.20;99.90
58469;DHT22;44257;44.804;10.220;2024-02-04T12:48:57;16.10;99.90
58469;DHT22;44257;44.804;10.220;2024-02-04T12:51:27;16.10;99.90
58469;DHT22;44257;44.804;10.220;2024-02-04T12:54:11;16.10;99.90
58469;DHT22;44257;44.804;10.220;2024-02-04T12:56:49;16.10;99.90
58469;DHT22;44257;44.804;10.220;2024-02-04T12:59:25;16.20;99.90
58469;DHT22;44257;44.804;10.220;2024-02-04T13:02:06;16.30;99.90
58469;DHT22;44257;44.804;10.220;2024-02-04T13:04:39;16.30;99.90
58469;DHT22;44257;44.804;10.220;2024-02-04T13:07:12;16.40;99.90
58469;DHT22;44257;44.804;10.220;2024-02-04T13:09:40;16.40;99.90
58469;DHT22;44257;44.804;10.220;2024-02-04T13:12:07;16.40;99.90
58469;DHT22;44257;44.804;10.220;2024-02-04T13:14:34;16.50;99.90
58469;DHT22;44257;44.804;10.220;2024-02-04T13:17:01;16.40;99.90
58469;DHT22;44257;44.804;10.220;2024-02-04T13:19:37;16.30;99.90
58469;DHT22;44257;44.804;10.220;2024-02-04T13:22:04;16.40;99.90
58469;DHT22;44257;44.804;10.220;2024-02-04T13:24:31;16.50;99.90
58469;DHT22;44257;44.804;10.220;2024-02-04T13:26:57;16.50;99.90
58469;DHT22;44257;44.804;10.220;2024-02-04T13:29:24;16.50;99.90
58469;DHT22;44257;44.804;10.220;2024-02-04T13:31:50;16.60;99.90
58469;DHT22;44257;44.804;10.220;2024-02-04T13:34:16;16.70;99.90
58469;DHT22;44257;44.804;10.220;2024-02-04T13:36:43;16.80;99.90
58469;DHT22;44257;44.804;10.220;2024-02-04T13:39:09;16.90;99.90
58469;DHT22;44257;44.804;10.220;2024-02-04T13:41:35;16.90;99.90
58469;DHT22;44257;44.804;10.220;2024-02-04T13:44:01;16.90;99.90
58469;DHT22;44257;44.804;10.220;2024-02-04T13:46:27;16.90;99.90
58469;DHT22;44257;44.804;10.220;2024-02-04T13:48:53;16.90;99.90
58469;DHT22;44257;44.804;10.220;2024-02-04T13:51:19;16.90;99.90
58469;DHT22;44257;44.804;10.220;2024-02-04T13:53:45;16.80;99.90
58469;DHT22;44257;44.804;10.220;2024-02-04T13:56:10;16.80;99.90
58469;DHT22;44257;44.804;10.220;2024-02-04T13:58:36;16.80;99.90
58469;DHT22;44257;44.804;10.220;2024-02-04T14:01:02;16.70;99.90
58469;DHT22;44257;44.804;10.220;2024-02-04T14:03:28;16.60;99.90
58469;DHT22;44257;44.804;10.220;2024-02-04T14:05:54;16.50;99.90
58469;DHT22;44257;44.804;10.220;2024-02-04T14:08:21;16.50;99.90
58469;DHT22;44257;44.804;10.220;2024-02-04T14:10:47;16.40;99.90
58469;DHT22;44257;44.804;10.220;2024-02-04T14:13:13;16.30;99.90
58469;DHT22;44257;44.804;10.220;2024-02-04T14:15:39;16.50;99.90
58469;DHT22;44257;44.804;10.220;2024-02-04T14:18:05;16.60;99.90
58469;DHT22;44257;44.804;10.220;2024-02-04T14:20:31;16.70;99.90
58469;DHT22;44257;44.804;10.220;2024-02-04T14:22:57;16.70;99.90
58469;DHT22;44257;44.804;10.220;2024-02-04T14:25:23;16.70;99.90
58469;DHT22;44257;44.804;10.220;2024-02-04T14:27:52;16.70;99.90
58469;DHT22;44257;44.804;10.220;2024-02-04T14:30:18;16.60;99.90
58469;DHT22;44257;44.804;10.220;2024-02-04T14:32:44;16.50;99.90
58469;DHT22;44257;44.804;10.220;2024-02-04T14:35:10;16.30;99.90
58469;DHT22;44257;44.804;10.220;2024-02-04T14:37:37;16.20;99.90
58469;DHT22;44257;44.804;10.220;2024-02-04T14:40:06;16.10;99.90
58469;DHT22;44257;44.804;10.220;2024-02-04T14:42:32;16.10;99.90
58469;DHT22;44257;44.804;10.220;2024-02-04T14:45:00;16.10;99.90
58469;DHT22;44257;44.804;10.220;2024-02-04T14:47:27;16.00;99.90
58469;DHT22;44257;44.804;10.220;2024-02-04T14:49:53;15.90;99.90
58469;DHT22;44257;44.804;10.220;2024-02-04T14:52:19;15.80;99.90
58469;DHT22;44257;44.804;10.220;2024-02-04T14:54:45;15.70;99.90
58469;DHT22;44257;44.804;10.220;2024-02-04T14:57:11;15.60;99.90
58469;DHT22;44257;44.804;10.220;2024-02-04T14:59:38;15.40;99.90
58469;DHT22;44257;44.804;10.220;2024-02-04T15:02:04;15.30;99.90
58469;DHT22;44257;44.804;10.220;2024-02-04T15:04:31;15.20;99.90
58469;DHT22;44257;44.804;10.220;2024-02-04T15:06:58;15.10;99.90
58469;DHT22;44257;44.804;10.220;2024-02-04T15:09:24;15.00;99.90
58469;DHT22;44257;44.804;10.220;2024-02-04T15:11:50;15.00;99.90
58469;DHT22;44257;44.804;10.220;2024-02-04T15:14:16;15.00;99.90
58469;DHT22;44257;44.804;10.220;2024-02-04T15:16:42;14.90;99.90
58469;DHT22;44257;44.804;10.220;2024-02-04T15:19:09;14.80;99.90
58469;DHT22;44257;44.804;10.220;2024-02-04T15:21:35;14.70;99.90
58469;DHT22;44257;44.804;10.220;2024-02-04T15:24:02;14.70;99.90
58469;DHT22;44257;44.804;10.220;2024-02-04T15:26:34;14.70;99.90
58469;DHT22;44257;44.804;10.220;2024-02-04T15:29:03;14.70;99.90
58469;DHT22;44257;44.804;10.220;2024-02-04T15:31:31;14.60;99.90